Pray, Montana
Current Conditions -  °F | °C
As of 3:53 PM on Sunday 21 Dec 2014 (Local Time) from KLVM Reporting Station
Light Rain Light Rain  
Wind Chill: 29°   Ceiling: Unl
Heat Index: 40°   Visibility: 10mi
Dew Point: 28°   Wind: 29mph
Humidity: 63%   Direction: 250°WSW
Pressure: 29.59"   Gusts: 38mph
Location:  45.38°N, 110.68°W
Report Text: KLVM 212253Z AUTO 25025G33KT 10SM -RA FEW026 FEW070 SCT110 04/M02 A2959 RMK AO2 PK WND 28048/2157 RAB50 SLP021 P0000 T00441022 $
Loading
Personal Weather Stations






























Interactive Weather Map New forecast layout! Learn more

10-Day Weather Forecast

Advertisements
Track Severe Weather on mobile